sensor_id;sensor_type;location;lat;lon;timestamp;pressure;altitude;pressure_sealevel;temperature
15360;BMP280;7779;49.596;11.070;2022-09-03T00:00:14;98078.69;;;17.90
15360;BMP280;7779;49.596;11.070;2022-09-03T00:02:51;98075.25;;;17.88
15360;BMP280;7779;49.596;11.070;2022-09-03T00:11:11;98073.31;;;17.78
15360;BMP280;7779;49.596;11.070;2022-09-03T00:13:56;98071.53;;;17.74
15360;BMP280;7779;49.596;11.070;2022-09-03T00:16:29;98070.63;;;17.71
15360;BMP280;7779;49.596;11.070;2022-09-03T00:19:02;98076.44;;;17.68
15360;BMP280;7779;49.596;11.070;2022-09-03T00:22:31;98068.75;;;17.64
15360;BMP280;7779;49.596;11.070;2022-09-03T00:24:40;98066.91;;;17.59
15360;BMP280;7779;49.596;11.070;2022-09-03T00:27:15;98069.38;;;17.56
15360;BMP280;7779;49.596;11.070;2022-09-03T00:29:55;98074.38;;;17.53
15360;BMP280;7779;49.596;11.070;2022-09-03T00:32:57;98071.75;;;17.50
15360;BMP280;7779;49.596;11.070;2022-09-03T00:35:33;98065.72;;;17.45
15360;BMP280;7779;49.596;11.070;2022-09-03T00:38:00;98058.81;;;17.39
15360;BMP280;7779;49.596;11.070;2022-09-03T00:40:54;98063.84;;;17.38
15360;BMP280;7779;49.596;11.070;2022-09-03T00:43:56;98067.88;;;17.30
15360;BMP280;7779;49.596;11.070;2022-09-03T00:46:59;98064.28;;;17.22
15360;BMP280;7779;49.596;11.070;2022-09-03T00:50:05;98066.59;;;17.16
15360;BMP280;7779;49.596;11.070;2022-09-03T00:52:55;98066.44;;;17.10
15360;BMP280;7779;49.596;11.070;2022-09-03T00:55:31;98074.75;;;17.05
15360;BMP280;7779;49.596;11.070;2022-09-03T00:58:36;98079.69;;;17.00
15360;BMP280;7779;49.596;11.070;2022-09-03T01:01:19;98074.53;;;16.97
15360;BMP280;7779;49.596;11.070;2022-09-03T01:12:36;98074.88;;;16.80
15360;BMP280;7779;49.596;11.070;2022-09-03T01:30:19;98088.69;;;16.62
15360;BMP280;7779;49.596;11.070;2022-09-03T01:33:10;98085.16;;;16.57
15360;BMP280;7779;49.596;11.070;2022-09-03T01:35:47;98079.19;;;16.53
15360;BMP280;7779;49.596;11.070;2022-09-03T01:38:41;98081.66;;;16.52
15360;BMP280;7779;49.596;11.070;2022-09-03T01:51:10;98074.50;;;16.38
15360;BMP280;7779;49.596;11.070;2022-09-03T02:00:09;98081.75;;;16.27
15360;BMP280;7779;49.596;11.070;2022-09-03T02:02:43;98077.50;;;16.26
15360;BMP280;7779;49.596;11.070;2022-09-03T02:05:18;98084.28;;;16.27
15360;BMP280;7779;49.596;11.070;2022-09-03T02:07:58;98086.81;;;16.27
15360;BMP280;7779;49.596;11.070;2022-09-03T02:10:40;98084.28;;;16.27
15360;BMP280;7779;49.596;11.070;2022-09-03T02:13:24;98082.56;;;16.26
15360;BMP280;7779;49.596;11.070;2022-09-03T02:15:55;98086.72;;;16.24
15360;BMP280;7779;49.596;11.070;2022-09-03T02:18:28;98083.31;;;16.24
15360;BMP280;7779;49.596;11.070;2022-09-03T02:20:56;98083.31;;;16.24
15360;BMP280;7779;49.596;11.070;2022-09-03T02:23:25;98090.06;;;16.23
15360;BMP280;7779;49.596;11.070;2022-09-03T02:25:56;98080.75;;;16.22
15360;BMP280;7779;49.596;11.070;2022-09-03T02:28:23;98081.59;;;16.21
15360;BMP280;7779;49.596;11.070;2022-09-03T02:30:50;98088.28;;;16.21
15360;BMP280;7779;49.596;11.070;2022-09-03T02:33:16;98082.38;;;16.20
15360;BMP280;7779;49.596;11.070;2022-09-03T02:35:42;98088.25;;;16.19
15360;BMP280;7779;49.596;11.070;2022-09-03T02:38:28;98085.75;;;16.19
15360;BMP280;7779;49.596;11.070;2022-09-03T02:40:54;98083.91;;;16.17
15360;BMP280;7779;49.596;11.070;2022-09-03T02:43:48;98078.81;;;16.15
15360;BMP280;7779;49.596;11.070;2022-09-03T02:46:22;98081.31;;;16.14
15360;BMP280;7779;49.596;11.070;2022-09-03T02:48:50;98085.50;;;16.13
15360;BMP280;7779;49.596;11.070;2022-09-03T02:51:15;98082.06;;;16.11
15360;BMP280;7779;49.596;11.070;2022-09-03T02:53:42;98076.16;;;16.11
15360;BMP280;7779;49.596;11.070;2022-09-03T02:56:08;98073.59;;;16.09
15360;BMP280;7779;49.596;11.070;2022-09-03T02:58:33;98070.16;;;16.07
15360;BMP280;7779;49.596;11.070;2022-09-03T03:00:59;98072.72;;;16.09
15360;BMP280;7779;49.596;11.070;2022-09-03T03:03:25;98067.69;;;16.09
15360;BMP280;7779;49.596;11.070;2022-09-03T03:05:57;98068.53;;;16.09
15360;BMP280;7779;49.596;11.070;2022-09-03T03:08:26;98070.16;;;16.07
15360;BMP280;7779;49.596;11.070;2022-09-03T03:10:56;98065.09;;;16.07
15360;BMP280;7779;49.596;11.070;2022-09-03T03:13:30;98068.44;;;16.06
15360;BMP280;7779;49.596;11.070;2022-09-03T03:15:58;98065.88;;;16.05
15360;BMP280;7779;49.596;11.070;2022-09-03T03:18:25;98060.78;;;16.03
15360;BMP280;7779;49.596;11.070;2022-09-03T03:20:51;98065.00;;;16.04
15360;BMP280;7779;49.596;11.070;2022-09-03T03:23:16;98068.34;;;16.03
15360;BMP280;7779;49.596;11.070;2022-09-03T03:25:43;98066.63;;;16.02
15360;BMP280;7779;49.596;11.070;2022-09-03T03:28:09;98081.78;;;16.02
15360;BMP280;7779;49.596;11.070;2022-09-03T03:30:38;98075.03;;;16.02
15360;BMP280;7779;49.596;11.070;2022-09-03T03:33:05;98076.69;;;16.01
15360;BMP280;7779;49.596;11.070;2022-09-03T03:35:32;98076.66;;;16.00
15360;BMP280;7779;49.596;11.070;2022-09-03T03:37:58;98076.66;;;16.00
15360;BMP280;7779;49.596;11.070;2022-09-03T03:40:25;98069.88;;;15.99
15360;BMP280;7779;49.596;11.070;2022-09-03T03:42:51;98073.19;;;15.96
15360;BMP280;7779;49.596;11.070;2022-09-03T03:45:18;98072.28;;;15.96
15360;BMP280;7779;49.596;11.070;2022-09-03T03:47:44;98077.31;;;15.94
15360;BMP280;7779;49.596;11.070;2022-09-03T03:50:10;98073.91;;;15.94
15360;BMP280;7779;49.596;11.070;2022-09-03T03:52:36;98076.38;;;15.92
15360;BMP280;7779;49.596;11.070;2022-09-03T03:55:02;98069.59;;;15.90
15360;BMP280;7779;49.596;11.070;2022-09-03T03:57:30;98077.13;;;15.88
15360;BMP280;7779;49.596;11.070;2022-09-03T03:59:57;98073.69;;;15.86
15360;BMP280;7779;49.596;11.070;2022-09-03T04:02:22;98076.97;;;15.84
15360;BMP280;7779;49.596;11.070;2022-09-03T04:04:48;98071.88;;;15.82
15360;BMP280;7779;49.596;11.070;2022-09-03T04:07:14;98072.66;;;15.80
15360;BMP280;7779;49.596;11.070;2022-09-03T04:09:40;98065.81;;;15.77
15360;BMP280;7779;49.596;11.070;2022-09-03T04:12:06;98080.91;;;15.76
15360;BMP280;7779;49.596;11.070;2022-09-03T04:14:33;98080.06;;;15.75
15360;BMP280;7779;49.596;11.070;2022-09-03T04:17:00;98069.91;;;15.74
15360;BMP280;7779;49.596;11.070;2022-09-03T04:19:27;98063.94;;;15.72
15360;BMP280;7779;49.596;11.070;2022-09-03T04:21:55;98067.31;;;15.71
15360;BMP280;7779;49.596;11.070;2022-09-03T04:24:21;98065.47;;;15.67
15360;BMP280;7779;49.596;11.070;2022-09-03T04:26:47;98073.97;;;15.69
15360;BMP280;7779;49.596;11.070;2022-09-03T04:29:15;98064.63;;;15.66
15360;BMP280;7779;49.596;11.070;2022-09-03T04:31:41;98066.34;;;15.67
15360;BMP280;7779;49.596;11.070;2022-09-03T04:34:29;98064.56;;;15.65
15360;BMP280;7779;49.596;11.070;2022-09-03T04:36:55;98071.28;;;15.64
15360;BMP280;7779;49.596;11.070;2022-09-03T04:39:24;98073.81;;;15.64
15360;BMP280;7779;49.596;11.070;2022-09-03T04:41:50;98075.50;;;15.64
15360;BMP280;7779;49.596;11.070;2022-09-03T04:44:16;98076.34;;;15.64
15360;BMP280;7779;49.596;11.070;2022-09-03T04:46:41;98084.81;;;15.66
15360;BMP280;7779;49.596;11.070;2022-09-03T04:49:07;98081.56;;;15.69
15360;BMP280;7779;49.596;11.070;2022-09-03T04:51:35;98081.59;;;15.70
15360;BMP280;7779;49.596;11.070;2022-09-03T04:54:03;98089.25;;;15.73
15360;BMP280;7779;49.596;11.070;2022-09-03T04:56:33;98087.69;;;15.77
15360;BMP280;7779;49.596;11.070;2022-09-03T04:59:06;98085.31;;;15.81
15360;BMP280;7779;49.596;11.070;2022-09-03T05:01:35;98093.03;;;15.86
15360;BMP280;7779;49.596;11.070;2022-09-03T05:04:02;98095.69;;;15.90
15360;BMP280;7779;49.596;11.070;2022-09-03T05:06:30;98098.38;;;15.95
15360;BMP280;7779;49.596;11.070;2022-09-03T05:08:56;98101.91;;;16.00
15360;BMP280;7779;49.596;11.070;2022-09-03T05:11:25;98090.38;;;16.07
15360;BMP280;7779;49.596;11.070;2022-09-03T05:13:55;98089.75;;;16.14
15360;BMP280;7779;49.596;11.070;2022-09-03T05:16:22;98086.63;;;16.21
15360;BMP280;7779;49.596;11.070;2022-09-03T05:18:52;98091.09;;;16.30
15360;BMP280;7779;49.596;11.070;2022-09-03T05:21:20;98090.50;;;16.38
15360;BMP280;7779;49.596;11.070;2022-09-03T05:23:48;98088.16;;;16.44
15360;BMP280;7779;49.596;11.070;2022-09-03T05:26:23;98086.72;;;16.52
15360;BMP280;7779;49.596;11.070;2022-09-03T05:28:54;98087.75;;;16.58
15360;BMP280;7779;49.596;11.070;2022-09-03T05:31:22;98080.31;;;16.63
15360;BMP280;7779;49.596;11.070;2022-09-03T05:33:54;98082.09;;;16.67
15360;BMP280;7779;49.596;11.070;2022-09-03T05:36:26;98091.53;;;16.72
15360;BMP280;7779;49.596;11.070;2022-09-03T05:38:52;98091.69;;;16.78
15360;BMP280;7779;49.596;11.070;2022-09-03T05:41:20;98092.75;;;16.84
15360;BMP280;7779;49.596;11.070;2022-09-03T05:43:51;98094.63;;;16.91
15360;BMP280;7779;49.596;11.070;2022-09-03T05:46:31;98088.13;;;17.01
15360;BMP280;7779;49.596;11.070;2022-09-03T05:48:59;98088.34;;;17.08
15360;BMP280;7779;49.596;11.070;2022-09-03T05:51:27;98084.44;;;17.19
15360;BMP280;7779;49.596;11.070;2022-09-03T05:53:53;98082.25;;;17.31
15360;BMP280;7779;49.596;11.070;2022-09-03T05:56:23;98080.91;;;17.45
15360;BMP280;7779;49.596;11.070;2022-09-03T05:58:53;98085.53;;;17.60
15360;BMP280;7779;49.596;11.070;2022-09-03T06:04:01;98083.91;;;17.96
15360;BMP280;7779;49.596;11.070;2022-09-03T06:06:30;98085.16;;;18.13
15360;BMP280;7779;49.596;11.070;2022-09-03T06:08:59;98089.84;;;18.32
15360;BMP280;7779;49.596;11.070;2022-09-03T06:11:28;98078.34;;;18.47
15360;BMP280;7779;49.596;11.070;2022-09-03T06:13:56;98093.09;;;18.64
15360;BMP280;7779;49.596;11.070;2022-09-03T06:16:23;98091.69;;;18.78
15360;BMP280;7779;49.596;11.070;2022-09-03T06:18:49;98092.75;;;18.89
15360;BMP280;7779;49.596;11.070;2022-09-03T06:21:16;98098.94;;;18.98
15360;BMP280;7779;49.596;11.070;2022-09-03T06:23:41;98088.94;;;19.07
15360;BMP280;7779;49.596;11.070;2022-09-03T06:26:10;98087.47;;;19.19
15360;BMP280;7779;49.596;11.070;2022-09-03T06:28:40;98098.69;;;19.30
15360;BMP280;7779;49.596;11.070;2022-09-03T06:31:11;98089.56;;;19.40
15360;BMP280;7779;49.596;11.070;2022-09-03T06:33:39;98094.81;;;19.50
15360;BMP280;7779;49.596;11.070;2022-09-03T06:36:09;98104.38;;;19.63
15360;BMP280;7779;49.596;11.070;2022-09-03T06:38:36;98105.44;;;19.75
15360;BMP280;7779;49.596;11.070;2022-09-03T06:41:25;98098.09;;;19.92
15360;BMP280;7779;49.596;11.070;2022-09-03T06:44:01;98099.19;;;20.05
15360;BMP280;7779;49.596;11.070;2022-09-03T06:46:30;98100.25;;;20.19
15360;BMP280;7779;49.596;11.070;2022-09-03T06:48:56;98100.47;;;20.34
15360;BMP280;7779;49.596;11.070;2022-09-03T06:51:25;98087.09;;;20.47
15360;BMP280;7779;49.596;11.070;2022-09-03T06:54:02;98100.81;;;20.58
15360;BMP280;7779;49.596;11.070;2022-09-03T06:56:28;98089.91;;;20.65
15360;BMP280;7779;49.596;11.070;2022-09-03T06:58:57;98106.25;;;20.78
15360;BMP280;7779;49.596;11.070;2022-09-03T07:01:29;98102.09;;;20.86
15360;BMP280;7779;49.596;11.070;2022-09-03T07:04:02;98108.97;;;20.93
15360;BMP280;7779;49.596;11.070;2022-09-03T07:06:40;98109.91;;;21.00
15360;BMP280;7779;49.596;11.070;2022-09-03T07:09:09;98094.75;;;21.09
15360;BMP280;7779;49.596;11.070;2022-09-03T07:11:36;98091.41;;;21.17
15360;BMP280;7779;49.596;11.070;2022-09-03T07:14:04;98093.25;;;21.27
15360;BMP280;7779;49.596;11.070;2022-09-03T07:16:34;98086.59;;;21.39
15360;BMP280;7779;49.596;11.070;2022-09-03T07:19:00;98082.47;;;21.50
15360;BMP280;7779;49.596;11.070;2022-09-03T07:21:31;98074.91;;;21.57
15360;BMP280;7779;49.596;11.070;2022-09-03T07:23:59;98066.44;;;21.63
15360;BMP280;7779;49.596;11.070;2022-09-03T07:26:30;98069.09;;;21.75
15360;BMP280;7779;49.596;11.070;2022-09-03T07:28:58;98076.78;;;21.82
15360;BMP280;7779;49.596;11.070;2022-09-03T07:31:30;98080.28;;;21.90
15360;BMP280;7779;49.596;11.070;2022-09-03T07:34:01;98074.38;;;21.95
15360;BMP280;7779;49.596;11.070;2022-09-03T07:36:38;98076.13;;;22.04
15360;BMP280;7779;49.596;11.070;2022-09-03T07:39:06;98078.75;;;22.13
15360;BMP280;7779;49.596;11.070;2022-09-03T07:41:32;98075.47;;;22.23
15360;BMP280;7779;49.596;11.070;2022-09-03T07:43:58;98078.97;;;22.36
15360;BMP280;7779;49.596;11.070;2022-09-03T07:46:31;98074.75;;;22.46
15360;BMP280;7779;49.596;11.070;2022-09-03T07:48:59;98073.94;;;22.51
15360;BMP280;7779;49.596;11.070;2022-09-03T07:51:35;98082.50;;;22.61
15360;BMP280;7779;49.596;11.070;2022-09-03T07:54:04;98082.53;;;22.68
15360;BMP280;7779;49.596;11.070;2022-09-03T07:56:33;98084.28;;;22.78
15360;BMP280;7779;49.596;11.070;2022-09-03T07:59:01;98081.72;;;22.81
15360;BMP280;7779;49.596;11.070;2022-09-03T08:01:29;98068.97;;;22.84
15360;BMP280;7779;49.596;11.070;2022-09-03T08:03:56;98073.22;;;22.85
15360;BMP280;7779;49.596;11.070;2022-09-03T08:06:27;98071.56;;;22.87
15360;BMP280;7779;49.596;11.070;2022-09-03T08:09:02;98071.59;;;22.91
15360;BMP280;7779;49.596;11.070;2022-09-03T08:11:29;98069.06;;;22.93
15360;BMP280;7779;49.596;11.070;2022-09-03T08:14:02;98075.88;;;22.98
15360;BMP280;7779;49.596;11.070;2022-09-03T08:16:44;98076.75;;;23.06
15360;BMP280;7779;49.596;11.070;2022-09-03T08:19:15;98072.53;;;23.13
15360;BMP280;7779;49.596;11.070;2022-09-03T08:21:43;98071.72;;;23.21
15360;BMP280;7779;49.596;11.070;2022-09-03T08:24:11;98070.03;;;23.29
15360;BMP280;7779;49.596;11.070;2022-09-03T08:26:40;98066.63;;;23.34
15360;BMP280;7779;49.596;11.070;2022-09-03T08:29:07;98087.94;;;23.42
15360;BMP280;7779;49.596;11.070;2022-09-03T08:31:35;98073.47;;;23.49
15360;BMP280;7779;49.596;11.070;2022-09-03T08:34:04;98065.78;;;23.53
15360;BMP280;7779;49.596;11.070;2022-09-03T08:36:37;98060.69;;;23.56
15360;BMP280;7779;49.596;11.070;2022-09-03T08:39:06;98059.88;;;23.61
15360;BMP280;7779;49.596;11.070;2022-09-03T08:41:57;98062.44;;;23.66
15360;BMP280;7779;49.596;11.070;2022-09-03T08:44:49;98063.28;;;23.69
15360;BMP280;7779;49.596;11.070;2022-09-03T08:47:45;98065.88;;;23.74
15360;BMP280;7779;49.596;11.070;2022-09-03T08:55:55;98072.69;;;23.84
15360;BMP280;7779;49.596;11.070;2022-09-03T08:58:30;98069.28;;;23.91
15360;BMP280;7779;49.596;11.070;2022-09-03T09:01:43;98065.88;;;23.97
15360;BMP280;7779;49.596;11.070;2022-09-03T09:04:46;98072.69;;;24.04
15360;BMP280;7779;49.596;11.070;2022-09-03T09:07:38;98064.16;;;24.11
15360;BMP280;7779;49.596;11.070;2022-09-03T09:10:23;98062.44;;;24.19
15360;BMP280;7779;49.596;11.070;2022-09-03T09:13:38;98060.75;;;24.27
15360;BMP280;7779;49.596;11.070;2022-09-03T09:22:06;98041.91;;;24.50
15360;BMP280;7779;49.596;11.070;2022-09-03T09:24:46;98036.75;;;24.59
15360;BMP280;7779;49.596;11.070;2022-09-03T09:27:15;98033.31;;;24.65
15360;BMP280;7779;49.596;11.070;2022-09-03T09:29:45;98025.63;;;24.69
15360;BMP280;7779;49.596;11.070;2022-09-03T09:32:15;98022.19;;;24.72
15360;BMP280;7779;49.596;11.070;2022-09-03T09:34:42;98017.91;;;24.78
15360;BMP280;7779;49.596;11.070;2022-09-03T09:37:14;98014.44;;;24.86
15360;BMP280;7779;49.596;11.070;2022-09-03T09:39:54;98014.44;;;24.95
15360;BMP280;7779;49.596;11.070;2022-09-03T09:42:22;98010.97;;;25.02
15360;BMP280;7779;49.596;11.070;2022-09-03T09:44:48;98007.53;;;25.09
15360;BMP280;7779;49.596;11.070;2022-09-03T09:47:38;98007.53;;;25.12
15360;BMP280;7779;49.596;11.070;2022-09-03T09:50:17;98007.53;;;25.12
15360;BMP280;7779;49.596;11.070;2022-09-03T09:52:45;98004.97;;;25.11
15360;BMP280;7779;49.596;11.070;2022-09-03T09:55:18;98010.94;;;25.11
15360;BMP280;7779;49.596;11.070;2022-09-03T09:57:45;98003.25;;;25.11
15360;BMP280;7779;49.596;11.070;2022-09-03T10:00:15;97998.94;;;25.14
15360;BMP280;7779;49.596;11.070;2022-09-03T10:02:50;98007.47;;;25.21
15360;BMP280;7779;49.596;11.070;2022-09-03T10:05:27;98006.56;;;25.25
15360;BMP280;7779;49.596;11.070;2022-09-03T10:08:01;98014.25;;;25.28
15360;BMP280;7779;49.596;11.070;2022-09-03T10:10:29;98003.97;;;25.29
15360;BMP280;7779;49.596;11.070;2022-09-03T10:13:18;98009.94;;;25.31
15360;BMP280;7779;49.596;11.070;2022-09-03T10:16:24;98007.38;;;25.33
15360;BMP280;7779;49.596;11.070;2022-09-03T10:19:15;98007.38;;;25.36
15360;BMP280;7779;49.596;11.070;2022-09-03T10:22:05;98007.34;;;25.39
15360;BMP280;7779;49.596;11.070;2022-09-03T10:24:53;98007.31;;;25.42
15360;BMP280;7779;49.596;11.070;2022-09-03T10:27:22;98003.84;;;25.46
15360;BMP280;7779;49.596;11.070;2022-09-03T10:29:49;97998.66;;;25.54
15360;BMP280;7779;49.596;11.070;2022-09-03T10:32:36;97992.66;;;25.64
15360;BMP280;7779;49.596;11.070;2022-09-03T10:35:29;97988.28;;;25.75
15360;BMP280;7779;49.596;11.070;2022-09-03T10:38:26;97986.47;;;25.85
15360;BMP280;7779;49.596;11.070;2022-09-03T10:41:09;97977.84;;;25.92
15360;BMP280;7779;49.596;11.070;2022-09-03T10:47:08;97972.66;;;25.99
15360;BMP280;7779;49.596;11.070;2022-09-03T10:52:21;97970.06;;;26.00
15360;BMP280;7779;49.596;11.070;2022-09-03T11:04:05;97968.16;;;26.17
15360;BMP280;7779;49.596;11.070;2022-09-03T11:06:50;97954.44;;;26.24
15360;BMP280;7779;49.596;11.070;2022-09-03T11:09:23;97953.50;;;26.33
15360;BMP280;7779;49.596;11.070;2022-09-03T11:12:00;97952.47;;;26.44
15360;BMP280;7779;49.596;11.070;2022-09-03T11:14:39;97954.03;;;26.55
15360;BMP280;7779;49.596;11.070;2022-09-03T11:17:15;97962.47;;;26.68
15360;BMP280;7779;49.596;11.070;2022-09-03T11:19:56;97958.03;;;26.77
15360;BMP280;7779;49.596;11.070;2022-09-03T11:22:25;97956.28;;;26.82
15360;BMP280;7779;49.596;11.070;2022-09-03T11:24:57;97944.25;;;26.87
15360;BMP280;7779;49.596;11.070;2022-09-03T11:30:13;97931.25;;;26.97
15360;BMP280;7779;49.596;11.070;2022-09-03T11:32:55;97930.31;;;27.03
15360;BMP280;7779;49.596;11.070;2022-09-03T11:35:40;97932.75;;;27.12
15360;BMP280;7779;49.596;11.070;2022-09-03T11:38:17;97926.63;;;27.18
15360;BMP280;7779;49.596;11.070;2022-09-03T11:46:26;97913.47;;;27.36
15360;BMP280;7779;49.596;11.070;2022-09-03T11:49:10;97914.19;;;27.47
15360;BMP280;7779;49.596;11.070;2022-09-03T11:51:38;97920.06;;;27.55
15360;BMP280;7779;49.596;11.070;2022-09-03T11:56:40;97917.09;;;27.76
15360;BMP280;7779;49.596;11.070;2022-09-03T12:02:00;97909.16;;;27.89
15360;BMP280;7779;49.596;11.070;2022-09-03T12:04:48;97906.53;;;27.90
15360;BMP280;7779;49.596;11.070;2022-09-03T12:07:34;97908.09;;;27.99
15360;BMP280;7779;49.596;11.070;2022-09-03T12:18:42;97901.09;;;28.49
15360;BMP280;7779;49.596;11.070;2022-09-03T12:21:10;97886.41;;;28.54
15360;BMP280;7779;49.596;11.070;2022-09-03T12:23:46;97886.31;;;28.57
15360;BMP280;7779;49.596;11.070;2022-09-03T12:26:25;97885.44;;;28.59
15360;BMP280;7779;49.596;11.070;2022-09-03T12:28:59;97876.81;;;28.60
15360;BMP280;7779;49.596;11.070;2022-09-03T12:31:28;97881.94;;;28.63
15360;BMP280;7779;49.596;11.070;2022-09-03T12:34:02;97883.53;;;28.69
15360;BMP280;7779;49.596;11.070;2022-09-03T12:36:39;97874.88;;;28.71
15360;BMP280;7779;49.596;11.070;2022-09-03T12:39:14;97878.25;;;28.73
15360;BMP280;7779;49.596;11.070;2022-09-03T12:42:06;97879.03;;;28.76
15360;BMP280;7779;49.596;11.070;2022-09-03T12:44:39;97872.06;;;28.81
15360;BMP280;7779;49.596;11.070;2022-09-03T12:47:13;97872.81;;;28.86
15360;BMP280;7779;49.596;11.070;2022-09-03T12:49:45;97869.22;;;28.93
15360;BMP280;7779;49.596;11.070;2022-09-03T12:52:42;97882.78;;;29.00
15360;BMP280;7779;49.596;11.070;2022-09-03T12:56:10;97870.63;;;29.06
15360;BMP280;7779;49.596;11.070;2022-09-03T12:58:14;97873.03;;;29.12
15360;BMP280;7779;49.596;11.070;2022-09-03T13:00:56;97866.09;;;29.17
15360;BMP280;7779;49.596;11.070;2022-09-03T13:03:36;97867.69;;;29.21
15360;BMP280;7779;49.596;11.070;2022-09-03T13:06:09;97870.13;;;29.27
15360;BMP280;7779;49.596;11.070;2022-09-03T13:08:48;97865.56;;;29.36
15360;BMP280;7779;49.596;11.070;2022-09-03T13:11:19;97874.81;;;29.46
15360;BMP280;7779;49.596;11.070;2022-09-03T13:14:02;97874.56;;;29.55
15360;BMP280;7779;49.596;11.070;2022-09-03T13:25:18;97865.00;;;29.91
15360;BMP280;7779;49.596;11.070;2022-09-03T13:29:10;97862.31;;;29.96
15360;BMP280;7779;49.596;11.070;2022-09-03T13:31:39;97870.91;;;29.96
15360;BMP280;7779;49.596;11.070;2022-09-03T13:34:21;97874.41;;;29.94
15360;BMP280;7779;49.596;11.070;2022-09-03T13:40:02;97866.84;;;29.87
15360;BMP280;7779;49.596;11.070;2022-09-03T13:42:45;97871.28;;;29.83
15360;BMP280;7779;49.596;11.070;2022-09-03T13:45:53;97874.84;;;29.78
15360;BMP280;7779;49.596;11.070;2022-09-03T13:48:36;97877.56;;;29.73
15360;BMP280;7779;49.596;11.070;2022-09-03T13:51:35;97878.66;;;29.63
15360;BMP280;7779;49.596;11.070;2022-09-03T13:54:19;97874.53;;;29.56
15360;BMP280;7779;49.596;11.070;2022-09-03T13:59:52;97878.31;;;29.44
15360;BMP280;7779;49.596;11.070;2022-09-03T14:03:10;97879.34;;;29.37
15360;BMP280;7779;49.596;11.070;2022-09-03T14:08:39;97877.97;;;29.24
15360;BMP280;7779;49.596;11.070;2022-09-03T14:11:47;97872.91;;;29.18
15360;BMP280;7779;49.596;11.070;2022-09-03T14:17:05;97868.69;;;29.14
15360;BMP280;7779;49.596;11.070;2022-09-03T14:19:55;97873.09;;;29.09
15360;BMP280;7779;49.596;11.070;2022-09-03T14:25:24;97890.34;;;29.07
15360;BMP280;7779;49.596;11.070;2022-09-03T14:27:52;97885.16;;;29.09
15360;BMP280;7779;49.596;11.070;2022-09-03T14:30:42;97880.78;;;29.12
15360;BMP280;7779;49.596;11.070;2022-09-03T14:36:15;97886.63;;;29.20
15360;BMP280;7779;49.596;11.070;2022-09-03T14:39:15;97888.34;;;29.21
15360;BMP280;7779;49.596;11.070;2022-09-03T14:48:41;97871.91;;;29.25
15360;BMP280;7779;49.596;11.070;2022-09-03T14:51:34;97869.31;;;29.25
15360;BMP280;7779;49.596;11.070;2022-09-03T15:02:45;97862.47;;;29.24
15360;BMP280;7779;49.596;11.070;2022-09-03T15:05:42;97865.00;;;29.25
15360;BMP280;7779;49.596;11.070;2022-09-03T15:11:30;97861.63;;;29.22
15360;BMP280;7779;49.596;11.070;2022-09-03T15:14:17;97861.75;;;29.16
15360;BMP280;7779;49.596;11.070;2022-09-03T15:17:05;97861.91;;;29.10
15360;BMP280;7779;49.596;11.070;2022-09-03T15:20:17;97865.56;;;29.00
15360;BMP280;7779;49.596;11.070;2022-09-03T15:29:19;97877.41;;;28.72
15360;BMP280;7779;49.596;11.070;2022-09-03T15:32:14;97876.81;;;28.60
15360;BMP280;7779;49.596;11.070;2022-09-03T15:35:09;97876.28;;;28.45
15360;BMP280;7779;49.596;11.070;2022-09-03T15:37:51;97889.41;;;28.33
15360;BMP280;7779;49.596;11.070;2022-09-03T15:40:26;97891.38;;;28.21
15360;BMP280;7779;49.596;11.070;2022-09-03T15:43:04;97882.16;;;28.11
15360;BMP280;7779;49.596;11.070;2022-09-03T15:45:53;97894.38;;;27.98
15360;BMP280;7779;49.596;11.070;2022-09-03T15:51:42;97903.50;;;27.71
15360;BMP280;7779;49.596;11.070;2022-09-03T15:54:49;97893.44;;;27.56
15360;BMP280;7779;49.596;11.070;2022-09-03T15:57:49;97898.81;;;27.44
15360;BMP280;7779;49.596;11.070;2022-09-03T16:00:20;97897.22;;;27.33
15360;BMP280;7779;49.596;11.070;2022-09-03T16:03:08;97906.81;;;27.23
15360;BMP280;7779;49.596;11.070;2022-09-03T16:05:43;97909.53;;;27.16
15360;BMP280;7779;49.596;11.070;2022-09-03T16:11:15;97914.91;;;27.00
15360;BMP280;7779;49.596;11.070;2022-09-03T16:14:19;97912.47;;;26.91
15360;BMP280;7779;49.596;11.070;2022-09-03T16:22:49;97929.91;;;26.68
15360;BMP280;7779;49.596;11.070;2022-09-03T16:25:27;97941.97;;;26.63
15360;BMP280;7779;49.596;11.070;2022-09-03T16:28:07;97960.00;;;26.57
15360;BMP280;7779;49.596;11.070;2022-09-03T16:43:25;97991.66;;;25.77
15360;BMP280;7779;49.596;11.070;2022-09-03T16:49:38;98000.50;;;25.38
15360;BMP280;7779;49.596;11.070;2022-09-03T17:10:21;98020.66;;;23.89
15360;BMP280;7779;49.596;11.070;2022-09-03T17:22:15;98009.47;;;23.12
15360;BMP280;7779;49.596;11.070;2022-09-03T17:24:50;98009.47;;;22.98
15360;BMP280;7779;49.596;11.070;2022-09-03T17:30:42;98008.47;;;22.68
15360;BMP280;7779;49.596;11.070;2022-09-03T17:34:01;98011.78;;;22.48
15360;BMP280;7779;49.596;11.070;2022-09-03T17:36:37;98016.81;;;22.30
15360;BMP280;7779;49.596;11.070;2022-09-03T17:39:52;98031.19;;;22.18
15360;BMP280;7779;49.596;11.070;2022-09-03T17:42:52;98027.66;;;22.04
15360;BMP280;7779;49.596;11.070;2022-09-03T17:48:55;98033.50;;;21.91
15360;BMP280;7779;49.596;11.070;2022-09-03T17:51:42;98039.41;;;21.86
15360;BMP280;7779;49.596;11.070;2022-09-03T17:57:23;98041.91;;;21.77
15360;BMP280;7779;49.596;11.070;2022-09-03T18:00:05;98052.06;;;21.71
15360;BMP280;7779;49.596;11.070;2022-09-03T18:06:21;98054.56;;;21.63
15360;BMP280;7779;49.596;11.070;2022-09-03T18:09:07;98043.50;;;21.63
15360;BMP280;7779;49.596;11.070;2022-09-03T18:11:40;98049.44;;;21.62
15360;BMP280;7779;49.596;11.070;2022-09-03T18:14:39;98054.50;;;21.60
15360;BMP280;7779;49.596;11.070;2022-09-03T18:17:31;98050.25;;;21.58
15360;BMP280;7779;49.596;11.070;2022-09-03T18:20:02;98053.63;;;21.56
15360;BMP280;7779;49.596;11.070;2022-09-03T18:26:01;98065.50;;;21.52
15360;BMP280;7779;49.596;11.070;2022-09-03T18:29:04;98068.03;;;21.51
15360;BMP280;7779;49.596;11.070;2022-09-03T18:31:49;98075.63;;;21.48
15360;BMP280;7779;49.596;11.070;2022-09-03T18:34:36;98080.72;;;21.45
15360;BMP280;7779;49.596;11.070;2022-09-03T18:37:25;98078.16;;;21.43
15360;BMP280;7779;49.596;11.070;2022-09-03T18:40:16;98084.06;;;21.41
15360;BMP280;7779;49.596;11.070;2022-09-03T18:46:58;98101.72;;;21.26